Time;durP1;ratioP1;P1;durP2;ratioP2;P2;SDS_P1;SDS_P2;PMS_P1;PMS_P2;Temp;Humidity;BMP_temperature;BMP_pressure;BME280_temperature;BME280_humidity;BME280_pressure;Samples;Min_cycle;Max_cycle;Signal;HPM_P1;HPM_P2
2022/01/30 00:01:44;;;;;;;21.20;2.05;;;6.60;99.90;;;;;;6172037;23;20009;-83
2022/01/30 00:04:09;;;;;;;20.98;1.85;;;6.70;99.90;;;;;;6171346;23;20009;-83
2022/01/30 00:06:35;;;;;;;22.92;2.00;;;6.70;99.90;;;;;;6195727;23;20041;-82
2022/01/30 00:09:00;;;;;;;26.63;2.55;;;6.80;99.90;;;;;;6196500;23;20001;-84
2022/01/30 00:11:32;;;;;;;16.27;1.50;;;6.80;99.90;;;;;;6171803;23;20019;-83
2022/01/30 00:13:59;;;;;;;16.67;2.58;;;6.80;99.90;;;;;;6171667;23;20016;-83
2022/01/30 00:16:29;;;;;;;20.42;1.77;;;6.80;99.90;;;;;;6171643;23;20513;-83
2022/01/30 00:19:15;;;;;;;21.08;3.22;;;6.90;99.90;;;;;;6171631;23;20009;-83
2022/01/30 00:21:46;;;;;;;18.33;2.05;;;6.80;99.90;;;;;;6171155;23;20015;-84
2022/01/30 00:24:24;;;;;;;19.35;1.92;;;6.80;99.90;;;;;;6170824;23;20041;-83
2022/01/30 00:26:51;;;;;;;14.38;1.10;;;6.60;99.90;;;;;;6171061;23;20013;-83
2022/01/30 00:29:16;;;;;;;17.67;0.88;;;6.50;99.90;;;;;;6196252;23;20008;-83
2022/01/30 00:31:42;;;;;;;15.65;1.90;;;6.40;99.90;;;;;;6196521;23;20005;-83
2022/01/30 00:34:08;;;;;;;19.20;1.95;;;6.20;99.90;;;;;;6195897;23;20238;-83
2022/01/30 00:36:34;;;;;;;17.33;1.60;;;6.40;99.90;;;;;;6171212;23;20009;-83
2022/01/30 00:50:32;;;;;;;25.55;1.85;;;6.20;99.90;;;;;;6190491;23;20039;-85
2022/01/30 00:52:58;;;;;;;23.58;2.28;;;6.40;99.90;;;;;;6170792;23;20009;-83
2022/01/30 00:55:26;;;;;;;19.35;1.88;;;6.50;99.90;;;;;;6196350;23;20071;-83
2022/01/30 00:57:52;;;;;;;30.60;2.92;;;6.40;99.90;;;;;;6171185;23;20009;-85
2022/01/30 01:00:18;;;;;;;26.00;2.10;;;6.40;99.90;;;;;;6171222;23;20020;-83
2022/01/30 01:02:45;;;;;;;18.65;2.13;;;6.50;99.90;;;;;;6171436;23;20002;-82
2022/01/30 01:05:11;;;;;;;24.50;2.80;;;6.30;99.90;;;;;;6170052;23;20443;-81
2022/01/30 01:07:41;;;;;;;27.70;2.25;;;6.20;99.90;;;;;;6171235;23;20017;-82
2022/01/30 01:10:18;;;;;;;19.95;1.85;;;6.40;99.90;;;;;;6170652;23;20012;-82
2022/01/30 01:23:45;;;;;;;18.02;2.28;;;6.30;99.90;;;;;;6195546;23;20013;-82
2022/01/30 01:26:12;;;;;;;26.95;1.95;;;6.30;99.90;;;;;;6170391;23;20017;-83
2022/01/30 01:28:38;;;;;;;22.25;2.08;;;6.20;99.90;;;;;;6170691;23;20057;-82
2022/01/30 01:31:04;;;;;;;21.42;2.53;;;6.30;99.90;;;;;;6170616;23;20013;-82
2022/01/30 01:33:42;;;;;;;18.08;1.50;;;6.20;99.90;;;;;;6170299;23;20023;-83
2022/01/30 01:36:08;;;;;;;21.13;1.25;;;6.00;99.90;;;;;;6195591;23;20015;-84
2022/01/30 01:38:33;;;;;;;22.40;2.30;;;6.20;99.90;;;;;;6170880;23;20069;-83
2022/01/30 01:40:59;;;;;;;21.67;2.05;;;6.10;99.90;;;;;;6170481;23;20016;-82
2022/01/30 01:43:26;;;;;;;17.27;1.23;;;6.20;99.90;;;;;;6170721;23;20005;-83
2022/01/30 01:45:54;;;;;;;21.13;1.35;;;6.10;99.90;;;;;;6170085;23;20020;-84
2022/01/30 01:48:20;;;;;;;13.45;1.23;;;6.30;99.90;;;;;;6170744;23;20013;-83
2022/01/30 01:51:04;;;;;;;16.48;0.98;;;6.20;99.90;;;;;;6170912;23;20434;-83
2022/01/30 01:53:31;;;;;;;8.38;0.65;;;6.20;99.90;;;;;;6171197;23;20005;-83
2022/01/30 01:55:57;;;;;;;13.48;0.60;;;6.10;99.90;;;;;;6195588;23;20005;-82
2022/01/30 01:58:26;;;;;;;8.82;0.73;;;6.10;99.90;;;;;;6172259;23;20009;-83
2022/01/30 02:01:15;;;;;;;14.85;1.02;;;6.00;99.90;;;;;;6185791;23;20065;-82
2022/01/30 02:03:43;;;;;;;13.73;1.23;;;6.10;99.90;;;;;;6172292;23;20076;-82
2022/01/30 02:06:12;;;;;;;13.10;0.73;;;6.10;99.90;;;;;;6197163;23;20013;-82
2022/01/30 02:08:42;;;;;;;14.50;1.08;;;6.00;99.90;;;;;;6197390;23;20018;-81
2022/01/30 02:11:30;;;;;;;10.82;1.15;;;5.90;99.90;;;;;;6172529;23;20016;-83
2022/01/30 02:14:16;;;;;;;12.23;1.15;;;5.90;99.90;;;;;;6196509;23;20447;-82
2022/01/30 02:27:36;;;;;;;19.83;1.13;;;6.00;99.90;;;;;;6197159;23;20036;-83
2022/01/30 02:30:13;;;;;;;12.23;1.05;;;6.10;99.90;;;;;;6197344;23;20016;-83
2022/01/30 02:32:39;;;;;;;15.80;1.20;;;6.20;99.90;;;;;;6171879;23;20096;-82
2022/01/30 02:35:05;;;;;;;15.32;1.58;;;6.20;99.90;;;;;;6172302;23;20009;-83
2022/01/30 02:37:31;;;;;;;11.57;1.15;;;6.20;99.90;;;;;;6172691;23;20056;-83
2022/01/30 02:39:56;;;;;;;15.95;1.30;;;6.20;99.90;;;;;;6172462;23;20001;-82
2022/01/30 02:42:26;;;;;;;16.25;0.82;;;6.20;99.90;;;;;;6197320;23;20035;-81
2022/01/30 02:44:56;;;;;;;14.05;1.55;;;6.20;99.90;;;;;;6172075;23;20009;-82
2022/01/30 02:47:37;;;;;;;11.60;0.65;;;6.20;99.90;;;;;;6172322;23;20017;-83
2022/01/30 02:50:20;;;;;;;13.77;0.80;;;6.20;99.90;;;;;;6172260;23;19997;-82
2022/01/30 02:52:56;;;;;;;10.98;0.77;;;6.10;99.90;;;;;;6172702;23;20013;-82
2022/01/30 02:55:22;;;;;;;9.15;0.57;;;6.20;99.90;;;;;;6171864;23;20016;-84
2022/01/30 02:57:48;;;;;;;8.43;0.90;;;5.90;99.90;;;;;;6196916;23;20009;-82
2022/01/30 03:00:14;;;;;;;6.07;0.60;;;5.90;99.90;;;;;;6196419;23;20020;-83
2022/01/30 03:02:40;;;;;;;8.15;0.40;;;5.80;99.90;;;;;;6172423;23;20009;-83
2022/01/30 03:05:05;;;;;;;7.60;0.40;;;5.60;99.90;;;;;;6196546;23;20016;-83
2022/01/30 03:07:31;;;;;;;5.65;0.50;;;5.60;99.90;;;;;;6197234;23;20012;-84
2022/01/30 03:09:59;;;;;;;13.23;0.60;;;5.60;99.90;;;;;;6172065;23;20073;-83
2022/01/30 03:12:43;;;;;;;7.63;0.75;;;5.60;99.90;;;;;;6172467;23;20016;-83
2022/01/30 03:15:10;;;;;;;7.07;0.50;;;5.60;99.90;;;;;;6195912;23;20009;-82
2022/01/30 03:17:36;;;;;;;6.18;0.40;;;5.50;99.90;;;;;;6172180;23;20013;-82
2022/01/30 03:20:03;;;;;;;10.40;0.60;;;5.40;99.90;;;;;;6172278;23;20312;-82
2022/01/30 03:22:29;;;;;;;10.18;0.70;;;5.40;99.90;;;;;;6177530;23;20017;-82
2022/01/30 03:24:55;;;;;;;11.23;0.60;;;5.50;99.90;;;;;;6171650;23;20073;-83
2022/01/30 03:27:36;;;;;;;8.95;0.57;;;5.60;99.90;;;;;;6175361;23;20009;-82
2022/01/30 03:30:06;;;;;;;7.68;0.50;;;5.50;99.90;;;;;;6171246;23;20028;-83
2022/01/30 03:32:55;;;;;;;6.57;0.60;;;5.50;99.90;;;;;;6180667;23;20090;-84
2022/01/30 03:35:22;;;;;;;8.85;0.52;;;5.30;99.90;;;;;;6172154;23;20009;-83
2022/01/30 03:37:48;;;;;;;10.82;0.88;;;5.30;99.90;;;;;;6172146;23;20408;-84
2022/01/30 03:41:10;;;;;;;7.85;0.50;;;5.40;99.90;;;;;;6171619;23;20036;-83
2022/01/30 03:44:12;;;;;;;9.82;0.57;;;5.30;99.90;;;;;;6135132;23;20010;-82
2022/01/30 03:47:18;;;;;;;13.82;1.40;;;5.30;99.90;;;;;;6111474;23;20037;-82
2022/01/30 03:57:17;;;;;;;11.40;0.60;;;5.30;99.90;;;;;;6105763;23;20021;-83
2022/01/30 03:59:43;;;;;;;8.13;0.57;;;5.30;99.90;;;;;;6105599;23;20006;-83
2022/01/30 04:02:09;;;;;;;9.05;0.60;;;5.40;99.90;;;;;;6105690;23;20175;-82
2022/01/30 04:08:22;;;;;;;13.25;0.75;;;5.50;99.90;;;;;;6106798;23;20057;-83
2022/01/30 04:11:13;;;;;;;8.02;0.70;;;5.50;99.90;;;;;;6082461;23;20006;-82
2022/01/30 04:13:58;;;;;;;8.75;0.70;;;5.40;99.90;;;;;;6102334;23;20359;-82
2022/01/30 04:16:57;;;;;;;14.65;0.60;;;5.30;99.90;;;;;;6171497;23;20019;-82
2022/01/30 04:19:41;;;;;;;12.23;0.75;;;5.40;99.90;;;;;;6173330;23;20040;-83
2022/01/30 04:22:22;;;;;;;8.75;0.98;;;5.50;99.90;;;;;;6174512;23;20013;-82
2022/01/30 04:25:10;;;;;;;11.43;0.77;;;5.50;99.90;;;;;;6184004;23;20073;-83
2022/01/30 04:28:14;;;;;;;10.65;0.52;;;5.50;99.90;;;;;;6118009;23;20021;-82
2022/01/30 04:30:59;;;;;;;8.65;0.50;;;5.50;99.90;;;;;;6135308;23;20052;-82
2022/01/30 04:33:45;;;;;;;10.80;0.50;;;5.40;99.90;;;;;;6142938;23;20021;-82
2022/01/30 04:36:29;;;;;;;14.95;0.75;;;5.50;99.90;;;;;;6174329;23;20055;-83
2022/01/30 04:52:02;;;;;;;9.95;0.60;;;5.50;99.90;;;;;;6110305;23;20156;-82
2022/01/30 05:01:22;;;;;;;20.38;1.30;;;5.70;99.90;;;;;;6019602;23;20016;-83
2022/01/30 05:04:21;;;;;;;15.77;0.82;;;5.70;99.90;;;;;;5996307;23;20004;-82
2022/01/30 05:09:57;;;;;;;18.73;0.90;;;5.70;99.90;;;;;;6019671;23;20080;-83
2022/01/30 05:12:44;;;;;;;12.85;0.90;;;5.60;99.90;;;;;;6019710;23;20037;-82
2022/01/30 05:15:20;;;;;;;12.25;1.08;;;5.60;99.90;;;;;;6019688;23;20474;-82
2022/01/30 05:18:21;;;;;;;16.05;0.98;;;5.60;99.90;;;;;;6020820;23;20071;-83
2022/01/30 05:21:05;;;;;;;10.35;0.80;;;5.60;99.90;;;;;;6087818;23;20393;-82
2022/01/30 05:23:41;;;;;;;13.60;0.90;;;5.50;99.90;;;;;;6088989;23;20022;-81
2022/01/30 05:26:31;;;;;;;14.20;1.55;;;5.50;99.90;;;;;;6088696;23;20085;-83
2022/01/30 05:29:20;;;;;;;15.45;1.05;;;5.60;99.90;;;;;;6175718;23;20009;-82
2022/01/30 05:31:58;;;;;;;17.30;1.20;;;5.60;99.90;;;;;;6172617;23;20013;-82
2022/01/30 05:34:44;;;;;;;17.20;1.27;;;5.60;99.90;;;;;;6175188;23;20036;-82
2022/01/30 05:37:30;;;;;;;16.75;1.55;;;5.60;99.90;;;;;;6195507;23;20056;-83
2022/01/30 05:40:14;;;;;;;14.48;1.00;;;5.70;99.90;;;;;;6195147;23;20016;-82
2022/01/30 05:42:58;;;;;;;9.85;0.55;;;5.60;99.90;;;;;;6174181;23;20443;-82
2022/01/30 05:45:54;;;;;;;10.55;0.52;;;5.60;99.90;;;;;;6174528;23;20032;-82
2022/01/30 05:48:51;;;;;;;15.88;1.00;;;5.50;99.90;;;;;;6115998;23;20166;-81
2022/01/30 05:51:28;;;;;;;;;;;5.60;99.90;;;;;;6113724;23;20018;-81
2022/01/30 05:54:02;;;;;;;10.98;0.77;;;5.60;99.90;;;;;;6132552;23;19909;-83
2022/01/30 05:56:34;;;;;;;16.20;0.80;;;5.50;99.90;;;;;;6134894;23;20010;-82
2022/01/30 05:59:10;;;;;;;15.55;1.02;;;5.60;99.90;;;;;;6088515;23;20010;-83
2022/01/30 06:01:40;;;;;;;11.65;0.95;;;5.50;99.90;;;;;;6087193;23;20039;-82
2022/01/30 06:11:32;;;;;;;14.80;1.00;;;5.50;99.90;;;;;;6081762;23;20046;-82
2022/01/30 06:13:57;;;;;;;11.70;0.85;;;5.30;99.90;;;;;;6081267;23;20070;-82
2022/01/30 06:16:23;;;;;;;12.25;0.90;;;5.30;99.90;;;;;;6105585;23;20674;-82
2022/01/30 06:18:49;;;;;;;14.27;0.75;;;5.40;99.90;;;;;;6057332;23;20021;-82
2022/01/30 06:21:38;;;;;;;13.60;1.08;;;5.40;99.90;;;;;;6056491;23;20074;-81
2022/01/30 06:24:22;;;;;;;13.02;0.68;;;5.30;99.90;;;;;;6077838;23;20108;-82
2022/01/30 06:27:13;;;;;;;16.00;1.15;;;5.40;99.90;;;;;;6085473;23;20070;-81
2022/01/30 06:29:59;;;;;;;21.23;0.95;;;5.30;99.90;;;;;;6084168;23;20567;-80
2022/01/30 06:32:43;;;;;;;14.38;0.90;;;5.30;99.90;;;;;;6105383;23;20026;-81
2022/01/30 06:35:35;;;;;;;19.23;1.35;;;5.30;99.90;;;;;;6083458;23;20141;-82
2022/01/30 06:38:18;;;;;;;15.73;1.27;;;5.30;99.90;;;;;;6059687;23;20010;-81
2022/01/30 06:41:04;;;;;;;20.42;1.42;;;5.20;99.90;;;;;;6104798;23;20062;-81
2022/01/30 06:43:49;;;;;;;26.13;1.48;;;5.10;99.90;;;;;;6067569;23;20177;-80
2022/01/30 06:46:34;;;;;;;15.35;0.90;;;5.00;99.90;;;;;;6086403;23;20570;-81
2022/01/30 06:49:18;;;;;;;17.95;1.08;;;4.90;99.90;;;;;;6107147;23;20025;-81
2022/01/30 06:52:03;;;;;;;15.88;0.70;;;4.90;99.90;;;;;;6085873;23;20519;-81
2022/01/30 06:54:47;;;;;;;24.10;1.48;;;5.00;99.90;;;;;;6086862;23;20021;-80
2022/01/30 06:57:52;;;;;;;25.52;1.40;;;4.90;99.90;;;;;;6042183;23;20129;-81
2022/01/30 07:00:36;;;;;;;19.10;1.52;;;4.90;99.90;;;;;;6088237;23;20017;-81
2022/01/30 07:03:31;;;;;;;26.33;1.48;;;5.00;99.90;;;;;;6093794;23;20014;-80
2022/01/30 07:06:08;;;;;;;21.10;1.30;;;4.90;99.90;;;;;;6082972;23;20042;-81
2022/01/30 07:08:37;;;;;;;23.42;1.65;;;4.90;99.90;;;;;;6081954;23;20480;-80
2022/01/30 07:11:03;;;;;;;21.83;1.80;;;4.90;99.90;;;;;;6058321;23;20010;-80
2022/01/30 07:13:29;;;;;;;18.98;1.63;;;5.00;99.90;;;;;;6081259;23;20077;-81
2022/01/30 07:15:54;;;;;;;19.67;2.25;;;4.90;99.90;;;;;;6082124;23;20015;-80
2022/01/30 07:18:20;;;;;;;24.90;2.03;;;4.90;99.90;;;;;;6082629;23;20030;-81
2022/01/30 07:20:45;;;;;;;18.92;1.35;;;4.90;99.90;;;;;;6082651;23;20014;-80
2022/01/30 07:23:11;;;;;;;22.17;1.75;;;4.80;99.90;;;;;;6057779;23;20499;-81
2022/01/30 07:25:36;;;;;;;16.40;0.95;;;5.00;99.90;;;;;;6106217;23;20038;-81
2022/01/30 07:28:02;;;;;;;13.02;0.60;;;4.90;99.90;;;;;;6105647;23;20083;-81
2022/01/30 07:30:28;;;;;;;16.55;1.23;;;4.90;99.90;;;;;;6171573;23;20036;-81
2022/01/30 07:32:54;;;;;;;19.77;1.40;;;4.90;99.90;;;;;;6170642;23;20088;-81
2022/01/30 07:35:20;;;;;;;22.00;2.13;;;4.90;99.90;;;;;;6195321;23;20060;-80
2022/01/30 07:37:46;;;;;;;17.67;1.65;;;4.90;99.90;;;;;;6195061;23;20005;-81
2022/01/30 07:56:06;;;;;;;20.23;1.20;;;5.10;99.90;;;;;;6188488;23;20043;-80
2022/01/30 07:58:32;;;;;;;20.23;1.13;;;5.10;99.90;;;;;;6169973;23;20013;-80
2022/01/30 08:00:57;;;;;;;19.42;1.58;;;5.10;99.90;;;;;;6169488;23;20032;-80
2022/01/30 08:03:23;;;;;;;20.70;1.65;;;5.20;99.90;;;;;;6170147;23;20019;-80
2022/01/30 08:05:51;;;;;;;28.08;2.10;;;5.20;99.90;;;;;;6169199;23;20135;-80
2022/01/30 08:08:17;;;;;;;22.20;1.98;;;5.30;99.90;;;;;;6170437;23;20060;-80
2022/01/30 08:10:42;;;;;;;17.60;2.42;;;5.30;99.90;;;;;;6195308;23;20008;-80
2022/01/30 08:13:08;;;;;;;18.17;1.27;;;5.30;99.90;;;;;;6169678;23;20013;-80
2022/01/30 08:15:34;;;;;;;23.13;1.60;;;5.30;99.90;;;;;;6170680;23;20025;-80
2022/01/30 08:17:59;;;;;;;19.70;1.98;;;5.30;99.90;;;;;;6169692;23;20009;-80
2022/01/30 08:20:27;;;;;;;22.63;2.03;;;5.40;99.90;;;;;;6196062;23;20009;-80
2022/01/30 08:22:54;;;;;;;22.70;1.45;;;5.40;99.90;;;;;;6194986;23;20005;-80
2022/01/30 08:25:22;;;;;;;21.45;1.65;;;5.40;99.90;;;;;;6169998;23;20039;-80
2022/01/30 08:27:49;;;;;;;23.55;1.83;;;5.40;99.90;;;;;;6194494;23;20024;-81
2022/01/30 08:30:15;;;;;;;18.40;1.75;;;5.40;99.90;;;;;;6170134;23;20331;-81
2022/01/30 08:32:49;;;;;;;23.65;1.77;;;5.50;99.90;;;;;;6169837;23;20017;-80
2022/01/30 08:35:16;;;;;;;25.27;1.60;;;5.50;99.90;;;;;;6194181;23;20061;-80
2022/01/30 08:37:42;;;;;;;25.85;2.88;;;5.50;99.90;;;;;;6170215;23;20454;-80
2022/01/30 08:40:11;;;;;;;21.98;2.05;;;5.50;99.90;;;;;;6169691;23;20028;-80
2022/01/30 08:42:37;;;;;;;25.05;1.52;;;5.50;99.90;;;;;;6169674;23;20016;-80
2022/01/30 08:45:05;;;;;;;17.85;1.25;;;5.50;99.90;;;;;;6169464;23;20095;-80
2022/01/30 08:47:30;;;;;;;25.95;2.10;;;5.60;99.90;;;;;;6169607;23;20013;-80
2022/01/30 08:49:56;;;;;;;20.55;1.75;;;5.60;99.90;;;;;;6193966;23;20031;-80
2022/01/30 08:52:22;;;;;;;21.23;1.48;;;5.60;99.90;;;;;;6170084;23;20036;-81
2022/01/30 08:54:52;;;;;;;20.65;1.35;;;5.60;99.90;;;;;;6169937;23;20013;-80
2022/01/30 08:57:18;;;;;;;20.52;1.80;;;5.60;99.90;;;;;;6169291;23;20020;-80
2022/01/30 08:59:44;;;;;;;20.35;1.75;;;5.70;99.90;;;;;;6169581;23;20009;-81
2022/01/30 09:02:09;;;;;;;14.25;1.30;;;5.70;99.90;;;;;;6194305;23;20059;-80
2022/01/30 09:04:35;;;;;;;20.60;1.50;;;5.70;99.90;;;;;;6168733;23;20017;-80
2022/01/30 09:07:00;;;;;;;19.75;1.35;;;5.70;99.90;;;;;;6194276;23;20013;-81
2022/01/30 09:09:26;;;;;;;21.60;2.03;;;5.60;99.90;;;;;;6194778;23;20028;-81
2022/01/30 09:11:52;;;;;;;23.92;2.03;;;5.60;99.90;;;;;;6169153;23;20005;-80
2022/01/30 09:14:18;;;;;;;22.98;1.90;;;5.60;99.90;;;;;;6194315;23;20297;-80
2022/01/30 09:16:45;;;;;;;20.05;1.67;;;5.50;99.90;;;;;;6194356;23;20090;-81
2022/01/30 09:19:11;;;;;;;16.77;1.08;;;5.40;99.90;;;;;;6166544;23;20121;-81
2022/01/30 09:21:37;;;;;;;16.83;1.27;;;5.20;99.90;;;;;;6169489;23;20005;-80
2022/01/30 09:24:03;;;;;;;17.48;1.58;;;5.20;99.90;;;;;;6169192;23;20375;-81
2022/01/30 09:26:28;;;;;;;19.55;1.50;;;5.20;99.90;;;;;;6193624;23;20435;-80
2022/01/30 09:28:54;;;;;;;21.30;1.58;;;5.20;99.90;;;;;;6168627;23;20009;-80
2022/01/30 09:31:20;;;;;;;19.85;1.38;;;5.30;99.90;;;;;;6168466;23;20013;-80
2022/01/30 09:33:46;;;;;;;24.67;2.08;;;5.40;99.90;;;;;;6168175;23;20020;-81
2022/01/30 09:36:13;;;;;;;22.13;2.33;;;5.60;99.90;;;;;;6168361;23;20088;-81
2022/01/30 09:38:39;;;;;;;21.27;2.35;;;5.60;99.90;;;;;;6196031;23;20009;-81
2022/01/30 09:41:08;;;;;;;19.83;1.60;;;5.80;99.90;;;;;;6169145;23;20027;-81
2022/01/30 09:43:33;;;;;;;21.42;1.88;;;5.80;99.90;;;;;;6168877;23;20366;-81
2022/01/30 09:46:00;;;;;;;14.57;1.92;;;5.90;99.90;;;;;;6193232;23;20032;-82
2022/01/30 09:56:45;;;;;;;15.40;1.75;;;6.60;99.90;;;;;;6195213;23;20016;-81
2022/01/30 09:59:11;;;;;;;17.88;1.77;;;6.50;99.90;;;;;;6168227;23;20036;-80
2022/01/30 10:01:37;;;;;;;25.10;2.72;;;6.40;99.90;;;;;;6169630;23;20009;-81
2022/01/30 10:11:49;;;;;;;30.42;3.58;;;6.50;99.90;;;;;;6196216;23;20024;-81
2022/01/30 10:14:15;;;;;;;22.27;2.50;;;6.50;99.90;;;;;;6168052;23;20435;-82
2022/01/30 10:16:49;;;;;;;21.00;2.25;;;6.60;99.90;;;;;;6167761;23;20005;-81
2022/01/30 10:19:19;;;;;;;29.45;2.10;;;6.70;99.90;;;;;;6168578;23;20009;-81
2022/01/30 10:29:40;;;;;;;27.88;3.03;;;7.20;99.90;;;;;;6193902;23;20136;-81
2022/01/30 10:32:10;;;;;;;30.02;2.38;;;7.10;99.90;;;;;;6168666;23;20017;-81
2022/01/30 10:34:38;;;;;;;31.17;2.67;;;7.00;99.90;;;;;;6146030;23;20020;-81
2022/01/30 10:37:22;;;;;;;24.98;2.72;;;6.90;99.90;;;;;;6170034;23;20032;-81
2022/01/30 10:39:53;;;;;;;21.70;2.15;;;7.00;99.90;;;;;;6171166;23;20069;-81
2022/01/30 10:42:31;;;;;;;22.77;2.95;;;7.20;99.90;;;;;;6145932;23;20009;-81
2022/01/30 10:44:56;;;;;;;31.55;3.33;;;7.20;99.90;;;;;;6145539;23;20013;-83
2022/01/30 10:47:22;;;;;;;33.45;3.55;;;7.20;99.90;;;;;;6146348;23;20324;-82
2022/01/30 10:49:48;;;;;;;31.60;3.95;;;7.20;99.90;;;;;;6146496;23;20002;-81
2022/01/30 10:52:15;;;;;;;22.35;2.60;;;7.10;99.90;;;;;;6145786;23;20009;-81
2022/01/30 10:54:41;;;;;;;30.17;2.90;;;7.00;99.90;;;;;;6145882;23;20012;-81
2022/01/30 10:57:11;;;;;;;25.73;2.60;;;6.80;99.90;;;;;;6145924;23;20028;-81
2022/01/30 10:59:43;;;;;;;24.73;2.42;;;6.80;99.90;;;;;;6145949;23;20005;-81
2022/01/30 11:02:23;;;;;;;30.60;3.50;;;6.80;99.90;;;;;;6170734;23;20005;-81
2022/01/30 11:04:49;;;;;;;;;;;6.90;99.90;;;;;;6146918;23;20005;-81
2022/01/30 11:07:17;;;;;;;26.95;3.15;;;7.00;99.90;;;;;;6145505;23;19934;-81
2022/01/30 11:10:03;;;;;;;32.22;4.03;;;7.30;99.90;;;;;;6171127;23;20009;-83
2022/01/30 11:12:40;;;;;;;30.25;3.40;;;7.40;99.90;;;;;;6146103;23;20009;-82
2022/01/30 11:15:35;;;;;;;28.65;2.13;;;7.30;99.90;;;;;;6145421;23;20012;-82
2022/01/30 11:18:03;;;;;;;27.45;2.47;;;7.10;99.90;;;;;;6145959;23;20025;-81
2022/01/30 11:20:34;;;;;;;24.92;2.22;;;7.20;99.90;;;;;;6145363;23;20016;-81
2022/01/30 11:23:02;;;;;;;35.65;4.43;;;7.30;99.90;;;;;;6145837;23;20035;-81
2022/01/30 11:25:35;;;;;;;32.33;2.63;;;7.50;99.90;;;;;;6147010;23;20009;-82
2022/01/30 11:28:04;;;;;;;25.02;2.80;;;7.50;99.90;;;;;;6145579;23;20009;-82
2022/01/30 11:30:32;;;;;;;31.48;3.42;;;7.50;99.90;;;;;;6170891;23;20005;-82
2022/01/30 11:32:59;;;;;;;28.48;3.67;;;7.70;99.90;;;;;;6146234;23;20053;-85
2022/01/30 11:35:25;;;;;;;29.65;3.05;;;7.80;99.90;;;;;;6145829;23;20008;-84
2022/01/30 11:37:51;;;;;;;33.90;4.95;;;7.70;99.90;;;;;;6171012;23;20005;-83
2022/01/30 11:40:18;;;;;;;33.15;3.30;;;7.50;99.90;;;;;;6170309;23;20099;-81
2022/01/30 11:42:49;;;;;;;26.80;3.50;;;7.70;99.90;;;;;;6196229;23;20000;-81
2022/01/30 11:45:31;;;;;;;29.70;3.75;;;7.80;99.90;;;;;;6170413;23;20008;-80
2022/01/30 11:48:01;;;;;;;28.27;2.60;;;7.70;99.90;;;;;;6146243;23;20028;-81
2022/01/30 11:50:29;;;;;;;25.05;2.13;;;7.40;99.90;;;;;;6170257;23;20013;-82
2022/01/30 11:52:58;;;;;;;25.65;2.83;;;7.40;99.90;;;;;;6146007;23;20016;-82
2022/01/30 11:55:58;;;;;;;18.98;2.75;;;7.50;99.90;;;;;;6170113;23;20009;-83
2022/01/30 11:58:30;;;;;;;23.83;2.88;;;7.60;99.90;;;;;;6121993;23;20052;-82
2022/01/30 12:00:56;;;;;;;16.25;2.47;;;7.70;99.90;;;;;;6145893;23;20033;-83
2022/01/30 12:03:29;;;;;;;34.28;4.50;;;7.70;99.90;;;;;;6145513;23;20120;-82
2022/01/30 12:06:17;;;;;;;28.40;3.72;;;7.60;99.90;;;;;;6170448;23;20051;-83
2022/01/30 12:08:48;;;;;;;22.48;2.33;;;7.50;99.90;;;;;;6145573;23;20009;-82
2022/01/30 12:11:43;;;;;;;27.23;3.58;;;7.60;99.90;;;;;;6143903;23;20012;-83
2022/01/30 12:18:40;;;;;;;26.70;3.05;;;7.80;99.90;;;;;;6197239;23;20449;-82
2022/01/30 12:21:37;;;;;;;24.43;2.87;;;7.80;99.90;;;;;;6144222;23;20013;-82
2022/01/30 12:24:25;;;;;;;21.92;2.92;;;7.80;99.90;;;;;;6145366;23;20252;-82
2022/01/30 12:26:58;;;;;;;22.38;2.42;;;8.00;99.90;;;;;;6144517;23;20032;-81
2022/01/30 12:29:37;;;;;;;17.75;2.05;;;8.00;99.90;;;;;;6170001;23;20009;-81
2022/01/30 12:32:25;;;;;;;30.67;3.63;;;8.00;99.90;;;;;;6145731;23;20021;-82
2022/01/30 12:35:00;;;;;;;27.02;2.88;;;7.90;99.90;;;;;;6144233;23;20021;-83
2022/01/30 12:37:31;;;;;;;29.63;3.40;;;8.00;99.90;;;;;;6169997;23;20009;-83
2022/01/30 12:40:14;;;;;;;28.38;3.30;;;7.90;99.90;;;;;;6145543;23;20027;-82
2022/01/30 12:42:40;;;;;;;23.27;2.55;;;7.70;99.90;;;;;;6196254;23;20013;-82
2022/01/30 12:45:09;;;;;;;17.65;2.20;;;7.70;99.90;;;;;;6145400;23;20032;-81
2022/01/30 12:47:48;;;;;;;32.97;3.00;;;7.60;99.90;;;;;;6145822;23;20036;-81
2022/01/30 12:50:14;;;;;;;24.35;3.05;;;7.60;99.90;;;;;;6146232;23;20009;-81
2022/01/30 12:52:40;;;;;;;26.70;3.38;;;7.80;99.90;;;;;;6149419;23;20035;-81
2022/01/30 12:55:11;;;;;;;34.28;3.38;;;7.70;99.90;;;;;;6145313;23;20009;-80
2022/01/30 12:57:40;;;;;;;32.90;3.55;;;7.60;99.90;;;;;;6145130;23;20009;-82
2022/01/30 13:00:08;;;;;;;26.77;3.05;;;7.70;99.90;;;;;;6145173;23;20031;-82
2022/01/30 13:06:40;;;;;;;29.83;3.38;;;7.90;99.90;;;;;;6196052;23;20032;-81
2022/01/30 13:09:06;;;;;;;23.95;2.60;;;8.00;99.90;;;;;;6144335;23;20005;-81
2022/01/30 13:11:33;;;;;;;22.33;2.00;;;8.00;99.90;;;;;;6169721;23;20017;-81
2022/01/30 13:14:07;;;;;;;24.83;3.35;;;8.00;99.90;;;;;;6170029;23;20009;-81
2022/01/30 13:16:36;;;;;;;25.85;3.03;;;8.00;99.90;;;;;;6145481;23;20162;-84
2022/01/30 13:19:05;;;;;;;16.35;1.88;;;7.80;99.90;;;;;;6196455;23;20008;-80
2022/01/30 13:21:32;;;;;;;22.92;3.17;;;7.70;99.90;;;;;;6144812;23;20008;-82
2022/01/30 13:23:59;;;;;;;20.98;2.55;;;7.70;99.90;;;;;;6195974;23;20020;-81
2022/01/30 13:26:29;;;;;;;24.38;3.17;;;7.80;99.90;;;;;;6143851;23;20117;-81
2022/01/30 13:28:55;;;;;;;23.50;2.38;;;7.80;99.90;;;;;;6144958;23;20012;-81
2022/01/30 13:31:21;;;;;;;26.67;2.80;;;7.70;99.90;;;;;;6145066;23;20009;-82
2022/01/30 13:34:06;;;;;;;22.77;3.42;;;7.80;99.90;;;;;;6162569;23;20013;-81
2022/01/30 13:36:34;;;;;;;22.50;2.17;;;7.80;99.90;;;;;;6194143;23;20076;-81
2022/01/30 13:39:05;;;;;;;21.80;2.95;;;7.80;99.90;;;;;;6169030;23;20063;-82
2022/01/30 13:41:33;;;;;;;22.88;2.38;;;7.80;99.90;;;;;;6168774;23;20092;-81
2022/01/30 13:43:59;;;;;;;20.40;2.47;;;7.80;99.90;;;;;;6169392;23;20005;-81
2022/01/30 13:49:13;;;;;;;25.85;2.65;;;7.80;99.90;;;;;;6194222;23;20005;-83
2022/01/30 13:51:39;;;;;;;29.38;2.78;;;7.80;99.90;;;;;;6194818;23;20044;-81
2022/01/30 13:54:10;;;;;;;24.85;2.97;;;7.90;99.90;;;;;;6194349;23;20001;-81
2022/01/30 13:56:36;;;;;;;34.97;3.72;;;8.00;99.90;;;;;;6197374;23;20005;-81
2022/01/30 14:06:39;;;;;;;30.08;2.60;;;7.60;99.90;;;;;;6197348;23;20035;-82
2022/01/30 14:09:13;;;;;;;25.50;2.00;;;7.50;99.90;;;;;;6170186;23;20060;-81
2022/01/30 14:11:40;;;;;;;18.73;1.67;;;7.40;99.90;;;;;;6171289;23;20024;-82
2022/01/30 14:14:17;;;;;;;21.83;2.28;;;7.40;99.90;;;;;;6171408;23;20001;-81
2022/01/30 14:16:50;;;;;;;13.68;1.85;;;7.40;99.90;;;;;;6196217;23;20036;-81
2022/01/30 14:19:28;;;;;;;19.92;2.00;;;7.20;99.90;;;;;;6195061;23;20013;-81
2022/01/30 14:21:56;;;;;;;23.98;2.25;;;7.10;99.90;;;;;;6171556;23;20032;-81
2022/01/30 14:24:25;;;;;;;16.90;1.98;;;7.00;99.90;;;;;;6196121;23;20031;-81
2022/01/30 14:27:21;;;;;;;24.63;2.90;;;7.10;99.90;;;;;;6170814;23;20501;-81
2022/01/30 14:29:56;;;;;;;24.63;2.25;;;7.10;99.90;;;;;;6178016;23;20510;-81
2022/01/30 14:32:22;;;;;;;17.75;2.42;;;7.20;99.90;;;;;;6195277;23;20036;-81
2022/01/30 14:34:52;;;;;;;20.95;2.88;;;7.20;99.90;;;;;;6171414;23;20097;-81
2022/01/30 14:37:21;;;;;;;22.20;2.50;;;7.20;99.90;;;;;;6170031;23;20013;-81
2022/01/30 14:39:58;;;;;;;24.00;2.67;;;7.30;99.90;;;;;;6171700;23;20005;-81
2022/01/30 14:42:24;;;;;;;21.52;1.95;;;7.30;99.90;;;;;;6171675;23;20241;-81
2022/01/30 14:44:50;;;;;;;19.05;1.70;;;7.40;99.90;;;;;;6196067;23;20196;-81
2022/01/30 14:47:16;;;;;;;20.70;1.88;;;7.50;99.90;;;;;;6171123;23;20141;-81
2022/01/30 14:49:41;;;;;;;17.58;1.60;;;7.50;99.90;;;;;;6171364;23;20016;-81
2022/01/30 14:52:07;;;;;;;22.10;1.98;;;7.50;99.90;;;;;;6195445;23;20013;-81
2022/01/30 14:54:34;;;;;;;17.27;2.35;;;7.40;99.90;;;;;;6170913;23;20387;-81
2022/01/30 14:57:01;;;;;;;17.42;2.05;;;7.40;99.90;;;;;;6170824;23;20041;-81
2022/01/30 14:59:28;;;;;;;15.60;1.13;;;7.30;99.90;;;;;;6170607;23;20005;-81
2022/01/30 15:01:54;;;;;;;21.88;2.58;;;7.30;99.90;;;;;;6170610;23;20021;-81
2022/01/30 15:04:19;;;;;;;19.25;2.20;;;7.30;99.90;;;;;;6168182;23;20430;-81
2022/01/30 15:06:45;;;;;;;20.75;2.00;;;7.20;99.90;;;;;;6195209;23;20073;-82
2022/01/30 15:09:11;;;;;;;19.33;2.17;;;7.20;99.90;;;;;;6170221;23;20005;-81
2022/01/30 15:11:36;;;;;;;20.35;2.45;;;7.20;99.90;;;;;;6195927;23;20047;-82
2022/01/30 15:14:03;;;;;;;19.80;2.35;;;7.20;99.90;;;;;;6170002;23;20040;-81
2022/01/30 15:16:47;;;;;;;21.15;2.22;;;7.20;99.90;;;;;;6170096;23;20012;-82
2022/01/30 15:19:15;;;;;;;22.08;2.40;;;7.10;99.90;;;;;;6170418;23;20044;-81
2022/01/30 15:21:42;;;;;;;15.30;2.15;;;7.10;99.90;;;;;;6170304;23;20012;-81
2022/01/30 15:24:09;;;;;;;17.77;2.20;;;7.10;99.90;;;;;;6169449;23;20009;-81
2022/01/30 15:26:36;;;;;;;16.02;1.90;;;7.00;99.90;;;;;;6170772;23;20343;-82
2022/01/30 15:29:04;;;;;;;14.48;2.00;;;7.00;99.90;;;;;;6170123;23;20009;-81